Time;durP1;ratioP1;P1;durP2;ratioP2;P2;SDS_P1;SDS_P2;PMS_P1;PMS_P2;Temp;Humidity;BMP_temperature;BMP_pressure;BME280_temperature;BME280_humidity;BME280_pressure;Samples;Min_cycle;Max_cycle;Signal;HPM_P1;HPM_P2
2023/06/19 00:02:22;;;;;;;6.47;5.88;;;21.40;99.90;;;;;;5055174;28;20099;-74
2023/06/19 00:04:47;;;;;;;7.43;6.43;;;21.30;99.90;;;;;;5055367;28;20094;-74
2023/06/19 00:07:13;;;;;;;8.15;6.80;;;21.40;99.90;;;;;;5039230;28;20052;-74
2023/06/19 00:09:39;;;;;;;6.95;6.32;;;21.30;99.90;;;;;;5043551;28;20053;-76
2023/06/19 00:12:05;;;;;;;6.90;6.20;;;21.30;99.90;;;;;;5043370;28;20044;-76
2023/06/19 00:14:31;;;;;;;7.30;6.47;;;21.20;99.90;;;;;;5029795;28;20044;-76
2023/06/19 00:16:57;;;;;;;7.78;6.97;;;21.20;99.90;;;;;;5090709;28;20369;-76
2023/06/19 00:19:22;;;;;;;7.63;6.80;;;21.20;99.90;;;;;;5039495;28;20637;-74
2023/06/19 00:21:48;;;;;;;7.22;6.63;;;21.20;99.90;;;;;;5042442;28;20397;-74
2023/06/19 00:24:14;;;;;;;7.32;6.45;;;21.20;99.90;;;;;;5053816;28;20575;-76
2023/06/19 00:26:40;;;;;;;7.03;6.32;;;21.20;99.90;;;;;;5030639;28;20040;-77
2023/06/19 00:29:07;;;;;;;6.65;6.05;;;21.10;99.90;;;;;;5059148;28;20617;-75
2023/06/19 00:31:33;;;;;;;6.82;6.22;;;21.10;99.90;;;;;;5042015;28;20103;-74
2023/06/19 00:33:58;;;;;;;7.45;6.75;;;21.10;99.90;;;;;;5053819;28;20033;-75
2023/06/19 00:36:25;;;;;;;7.40;6.63;;;21.10;99.90;;;;;;5056605;28;20033;-75
2023/06/19 00:38:52;;;;;;;7.28;6.53;;;21.10;99.90;;;;;;5060835;28;20048;-73
2023/06/19 00:41:19;;;;;;;7.07;6.38;;;21.10;99.90;;;;;;5063223;28;20032;-74
2023/06/19 00:43:45;;;;;;;8.02;7.22;;;21.10;99.90;;;;;;5059679;28;20037;-74
2023/06/19 00:46:11;;;;;;;7.47;6.72;;;21.00;99.90;;;;;;5057565;28;20044;-72
2023/06/19 00:48:38;;;;;;;6.63;5.93;;;21.00;99.90;;;;;;5057036;28;20563;-73
2023/06/19 00:51:03;;;;;;;7.05;6.35;;;21.00;99.90;;;;;;5041390;28;20655;-77
2023/06/19 00:53:32;;;;;;;7.40;6.70;;;21.00;99.90;;;;;;5056302;28;20079;-76
2023/06/19 00:55:59;;;;;;;7.57;6.78;;;21.00;99.90;;;;;;5035631;28;20056;-73
2023/06/19 00:58:25;;;;;;;6.55;5.95;;;20.90;99.90;;;;;;5040971;28;20043;-74
2023/06/19 01:00:51;;;;;;;7.78;6.07;;;20.90;99.90;;;;;;5030550;28;20037;-76
2023/06/19 01:03:17;;;;;;;7.72;6.93;;;21.00;99.90;;;;;;5042033;28;20044;-74
2023/06/19 01:05:46;;;;;;;7.70;7.00;;;20.90;99.90;;;;;;5058725;28;20097;-74
2023/06/19 01:08:18;;;;;;;7.25;6.55;;;20.90;99.90;;;;;;5051998;28;20627;-74
2023/06/19 01:10:49;;;;;;;7.72;6.93;;;20.90;99.90;;;;;;5064556;28;20048;-76
2023/06/19 01:13:41;;;;;;;7.63;6.63;;;20.80;99.90;;;;;;5062012;28;20123;-76
2023/06/19 01:16:07;;;;;;;7.80;6.93;;;20.80;99.90;;;;;;5050785;28;20051;-75
2023/06/19 01:18:34;;;;;;;7.93;7.13;;;20.80;99.90;;;;;;5031901;28;20044;-74
2023/06/19 01:21:16;;;;;;;7.40;6.32;;;20.80;99.90;;;;;;5044894;28;20067;-74
2023/06/19 01:23:43;;;;;;;7.97;6.53;;;20.80;99.90;;;;;;5063101;28;20110;-73
2023/06/19 01:26:09;;;;;;;7.75;6.95;;;20.80;99.90;;;;;;5060386;28;20037;-75
2023/06/19 01:28:38;;;;;;;7.43;6.72;;;20.90;99.90;;;;;;5037721;28;20469;-76
2023/06/19 01:31:15;;;;;;;7.30;6.60;;;20.80;99.90;;;;;;5067359;28;20095;-76
2023/06/19 01:33:44;;;;;;;7.85;6.50;;;20.80;99.90;;;;;;5065791;28;20487;-73
2023/06/19 01:36:11;;;;;;;7.32;6.70;;;20.80;99.90;;;;;;5052709;28;20032;-77
2023/06/19 01:38:39;;;;;;;8.02;7.10;;;20.80;99.90;;;;;;5055119;28;20029;-74
2023/06/19 01:41:07;;;;;;;7.32;6.68;;;20.80;99.90;;;;;;5059808;28;20446;-77
2023/06/19 01:43:33;;;;;;;8.65;7.13;;;20.80;99.90;;;;;;5044716;28;20033;-74
2023/06/19 01:46:00;;;;;;;7.30;6.47;;;20.80;99.90;;;;;;5065717;28;20618;-76
2023/06/19 01:48:27;;;;;;;8.18;7.38;;;20.70;99.90;;;;;;5051639;28;20048;-73
2023/06/19 01:50:53;;;;;;;7.93;7.20;;;20.80;99.90;;;;;;5083532;28;20086;-73
2023/06/19 01:53:18;;;;;;;8.32;7.53;;;20.70;99.90;;;;;;5032814;28;20611;-75
2023/06/19 01:55:44;;;;;;;7.38;6.68;;;20.70;99.90;;;;;;5039300;28;20087;-75
2023/06/19 01:58:10;;;;;;;7.50;6.75;;;20.70;99.90;;;;;;5040787;28;20400;-75
2023/06/19 02:00:36;;;;;;;8.60;7.72;;;20.70;99.90;;;;;;5046592;28;20037;-73
2023/06/19 02:03:03;;;;;;;7.97;7.28;;;20.60;99.90;;;;;;5043371;28;20052;-74
2023/06/19 02:05:29;;;;;;;9.40;7.50;;;20.60;99.90;;;;;;5025363;28;20123;-73
2023/06/19 02:07:55;;;;;;;7.40;6.70;;;20.60;99.90;;;;;;5041675;28;20040;-75
2023/06/19 02:10:21;;;;;;;8.27;7.03;;;20.60;99.90;;;;;;5055558;28;20047;-71
2023/06/19 02:12:46;;;;;;;9.07;6.97;;;20.60;99.90;;;;;;5043940;28;20040;-76
2023/06/19 02:15:12;;;;;;;8.25;7.10;;;20.60;99.90;;;;;;5058684;28;20033;-72
2023/06/19 02:17:38;;;;;;;7.75;6.95;;;20.70;99.90;;;;;;5053237;28;20040;-75
2023/06/19 02:20:08;;;;;;;9.95;7.30;;;20.70;99.90;;;;;;5067197;28;20164;-76
2023/06/19 02:22:34;;;;;;;7.53;6.80;;;20.70;99.90;;;;;;5035173;28;20055;-76
2023/06/19 02:25:00;;;;;;;7.32;6.63;;;20.70;99.90;;;;;;5053549;28;20123;-76
2023/06/19 02:27:25;;;;;;;6.97;6.28;;;20.80;99.90;;;;;;5068880;28;20129;-77
2023/06/19 02:29:51;;;;;;;7.05;6.35;;;20.80;99.90;;;;;;5045492;28;20050;-75
2023/06/19 02:32:17;;;;;;;7.40;6.70;;;20.90;99.90;;;;;;5036574;28;20037;-75
2023/06/19 02:34:42;;;;;;;7.97;7.10;;;21.10;99.90;;;;;;5056721;28;20063;-76
2023/06/19 02:37:08;;;;;;;6.85;6.15;;;21.10;99.90;;;;;;5050227;28;20050;-74
2023/06/19 02:39:34;;;;;;;8.90;6.65;;;21.20;99.90;;;;;;5050996;28;20456;-74
2023/06/19 02:41:59;;;;;;;7.28;6.57;;;21.30;99.90;;;;;;5043184;28;20040;-75
2023/06/19 02:44:25;;;;;;;7.40;5.90;;;21.30;99.90;;;;;;5040308;28;20039;-76
2023/06/19 02:46:51;;;;;;;7.38;6.57;;;21.40;99.90;;;;;;5057686;28;20765;-77
2023/06/19 02:49:16;;;;;;;7.72;6.82;;;21.40;99.90;;;;;;5041548;28;20389;-74
2023/06/19 02:51:42;;;;;;;6.97;6.28;;;21.30;99.90;;;;;;5051828;28;20079;-74
2023/06/19 02:54:08;;;;;;;7.63;6.82;;;21.30;99.90;;;;;;5052641;28;20114;-72
2023/06/19 02:56:34;;;;;;;7.68;6.88;;;21.30;99.90;;;;;;5086553;28;20041;-72
2023/06/19 02:58:59;;;;;;;6.95;6.25;;;21.30;99.90;;;;;;5023761;28;20076;-73
2023/06/19 03:01:25;;;;;;;8.40;6.45;;;21.30;99.90;;;;;;5082663;28;20119;-73
2023/06/19 03:03:52;;;;;;;7.85;6.82;;;21.20;99.90;;;;;;5046815;28;20044;-75
2023/06/19 03:06:18;;;;;;;7.55;6.53;;;21.30;99.90;;;;;;5032513;28;20032;-73
2023/06/19 03:08:44;;;;;;;8.35;7.10;;;21.30;99.90;;;;;;5054056;28;20041;-78
2023/06/19 03:11:11;;;;;;;7.22;6.53;;;21.30;99.90;;;;;;5064092;28;20036;-75
2023/06/19 03:13:49;;;;;;;8.63;6.72;;;21.30;99.90;;;;;;5052516;28;20055;-75
2023/06/19 03:16:15;;;;;;;8.00;7.20;;;21.30;99.90;;;;;;5056870;28;20040;-75
2023/06/19 03:18:44;;;;;;;8.27;7.35;;;21.40;99.90;;;;;;5066763;28;20098;-76
2023/06/19 03:21:13;;;;;;;7.82;7.03;;;21.40;99.90;;;;;;5059576;28;20051;-73
2023/06/19 03:23:41;;;;;;;7.85;7.05;;;21.50;99.90;;;;;;5048651;28;20033;-72
2023/06/19 03:26:07;;;;;;;7.40;6.70;;;21.50;99.90;;;;;;5058385;28;20068;-72
2023/06/19 03:28:33;;;;;;;7.68;6.75;;;21.60;99.90;;;;;;5033434;28;20084;-74
2023/06/19 03:30:58;;;;;;;7.35;6.65;;;21.60;99.90;;;;;;5027851;28;20478;-74
2023/06/19 03:33:24;;;;;;;7.38;6.47;;;21.70;99.90;;;;;;5053529;28;20045;-73
2023/06/19 03:35:50;;;;;;;7.57;6.35;;;21.70;99.90;;;;;;5039773;28;20405;-71
2023/06/19 03:38:16;;;;;;;8.18;7.38;;;21.70;99.90;;;;;;5054068;28;20493;-74
2023/06/19 03:40:41;;;;;;;8.75;7.55;;;21.70;99.90;;;;;;5054275;28;20053;-75
2023/06/19 03:43:07;;;;;;;7.53;6.82;;;21.70;99.90;;;;;;5056751;28;20048;-73
2023/06/19 03:45:33;;;;;;;7.90;6.90;;;21.70;99.90;;;;;;5056274;28;20036;-74
2023/06/19 03:47:59;;;;;;;7.20;6.50;;;21.70;99.90;;;;;;5051639;28;20044;-77
2023/06/19 03:50:25;;;;;;;7.32;6.63;;;21.60;99.90;;;;;;5061082;28;20048;-73
2023/06/19 03:52:50;;;;;;;8.00;6.95;;;21.60;99.90;;;;;;5054065;28;20036;-75
2023/06/19 03:55:17;;;;;;;6.90;6.28;;;21.60;99.90;;;;;;5029638;28;20052;-74
2023/06/19 03:57:42;;;;;;;7.43;6.72;;;21.50;99.90;;;;;;5047776;28;20064;-75
2023/06/19 04:00:10;;;;;;;7.82;7.00;;;21.50;99.90;;;;;;5059450;28;20559;-75
2023/06/19 04:02:36;;;;;;;7.00;6.40;;;21.50;99.90;;;;;;5067521;28;20041;-75
2023/06/19 04:05:02;;;;;;;7.20;6.50;;;21.60;99.90;;;;;;5052985;28;20072;-73
2023/06/19 04:07:28;;;;;;;7.88;6.97;;;21.60;99.90;;;;;;5056748;28;20033;-77
2023/06/19 04:09:54;;;;;;;8.35;6.38;;;21.60;99.90;;;;;;5043772;28;20845;-74
2023/06/19 04:12:20;;;;;;;13.55;6.85;;;21.60;99.90;;;;;;5031963;28;20765;-74
2023/06/19 04:14:45;;;;;;;7.68;6.97;;;21.60;99.90;;;;;;5058969;28;20036;-76
2023/06/19 04:17:13;;;;;;;7.13;6.35;;;21.50;99.90;;;;;;5061163;28;20068;-79
2023/06/19 04:19:39;;;;;;;6.72;6.13;;;21.50;99.90;;;;;;5035866;28;20079;-76
2023/06/19 04:22:05;;;;;;;7.18;6.47;;;21.50;99.90;;;;;;5065434;28;20469;-73
2023/06/19 04:24:30;;;;;;;6.60;6.00;;;21.50;99.90;;;;;;5064446;28;20512;-73
2023/06/19 04:26:56;;;;;;;7.78;6.28;;;21.50;99.90;;;;;;5058132;28;20076;-73
2023/06/19 04:29:22;;;;;;;6.53;5.90;;;21.50;99.90;;;;;;5049862;28;20145;-73
2023/06/19 04:31:47;;;;;;;7.13;6.43;;;21.40;99.90;;;;;;5041601;28;20083;-76
2023/06/19 04:34:16;;;;;;;6.45;5.47;;;21.40;99.90;;;;;;5050617;28;20051;-70
2023/06/19 04:36:42;;;;;;;7.40;6.43;;;21.40;99.90;;;;;;5061446;28;20071;-73
2023/06/19 04:39:08;;;;;;;6.82;6.20;;;21.40;99.90;;;;;;5055055;28;20610;-73
2023/06/19 04:41:38;;;;;;;7.80;6.20;;;21.40;99.90;;;;;;5019410;28;20067;-75
2023/06/19 04:44:05;;;;;;;6.15;5.55;;;21.40;99.90;;;;;;5047461;28;20048;-74
2023/06/19 04:46:31;;;;;;;6.32;5.72;;;21.40;99.90;;;;;;5055709;28;20127;-72
2023/06/19 04:48:57;;;;;;;6.72;5.88;;;21.40;99.90;;;;;;5058814;28;20132;-72
2023/06/19 04:51:23;;;;;;;6.95;5.75;;;21.30;99.90;;;;;;5049390;28;20040;-72
2023/06/19 04:53:48;;;;;;;6.43;5.55;;;21.30;99.90;;;;;;5073470;28;20486;-72
2023/06/19 04:56:15;;;;;;;6.68;6.07;;;21.30;99.90;;;;;;5074347;28;20048;-74
2023/06/19 04:58:46;;;;;;;7.22;5.57;;;21.40;99.90;;;;;;5042981;28;20032;-75
2023/06/19 05:01:15;;;;;;;6.43;5.78;;;21.40;99.90;;;;;;5048038;28;20040;-73
2023/06/19 05:03:43;;;;;;;7.28;6.18;;;21.30;99.90;;;;;;5027926;28;20111;-75
2023/06/19 05:06:09;;;;;;;6.40;5.78;;;21.30;99.90;;;;;;5052715;28;20044;-72
2023/06/19 05:08:34;;;;;;;8.30;5.65;;;21.30;99.90;;;;;;5069412;28;20511;-72
2023/06/19 05:11:00;;;;;;;6.88;5.70;;;21.30;99.90;;;;;;5048413;28;20082;-72
2023/06/19 05:13:26;;;;;;;6.57;5.40;;;21.30;99.90;;;;;;5036952;28;20431;-74
2023/06/19 05:15:52;;;;;;;5.90;5.30;;;21.30;99.90;;;;;;5057805;28;21677;-72
2023/06/19 05:18:18;;;;;;;8.82;5.25;;;21.30;99.90;;;;;;5036445;28;20061;-74
2023/06/19 05:20:44;;;;;;;7.60;5.00;;;21.30;99.90;;;;;;5065239;28;20040;-75
2023/06/19 05:23:10;;;;;;;5.45;4.95;;;21.30;99.90;;;;;;5046461;28;20123;-73
2023/06/19 05:25:36;;;;;;;5.10;4.60;;;21.30;99.90;;;;;;5050167;28;20124;-76
2023/06/19 05:28:01;;;;;;;8.30;5.25;;;21.30;99.90;;;;;;5075258;28;20491;-72
2023/06/19 05:30:27;;;;;;;5.78;5.18;;;21.30;99.90;;;;;;5050466;28;20090;-75
2023/06/19 05:32:53;;;;;;;6.15;4.93;;;21.20;99.90;;;;;;5042097;28;20041;-72
2023/06/19 05:35:19;;;;;;;5.97;5.20;;;21.20;99.90;;;;;;5041690;28;20094;-73
2023/06/19 05:37:45;;;;;;;5.57;4.78;;;21.30;99.90;;;;;;5068904;28;20128;-74
2023/06/19 05:40:11;;;;;;;5.65;5.15;;;21.20;99.90;;;;;;5063151;28;20381;-75
2023/06/19 05:42:37;;;;;;;6.90;4.60;;;21.20;99.90;;;;;;5059026;28;20035;-74
2023/06/19 05:45:04;;;;;;;10.15;5.53;;;21.20;99.90;;;;;;5066674;28;20186;-76
2023/06/19 05:47:30;;;;;;;4.72;4.25;;;21.20;99.90;;;;;;5051614;28;20072;-73
2023/06/19 05:49:56;;;;;;;7.57;5.03;;;21.20;99.90;;;;;;5059025;28;20346;-71
2023/06/19 05:52:23;;;;;;;4.80;4.30;;;21.20;99.90;;;;;;5055293;28;20063;-71
2023/06/19 05:54:49;;;;;;;4.88;4.38;;;21.20;99.90;;;;;;5050998;28;20103;-74
2023/06/19 05:57:20;;;;;;;5.70;4.40;;;21.20;99.90;;;;;;5059424;28;20043;-73
2023/06/19 05:59:48;;;;;;;5.25;4.75;;;21.30;99.90;;;;;;5061120;28;20079;-74
2023/06/19 06:02:13;;;;;;;6.10;4.78;;;21.40;99.90;;;;;;5034924;28;20040;-73
2023/06/19 06:04:39;;;;;;;5.22;4.72;;;21.40;99.90;;;;;;5051287;28;20055;-72
2023/06/19 06:07:05;;;;;;;5.10;4.60;;;21.40;99.90;;;;;;5039333;28;20467;-70
2023/06/19 06:09:32;;;;;;;6.10;4.90;;;21.60;99.90;;;;;;5049812;28;20448;-73
2023/06/19 06:11:58;;;;;;;7.53;5.30;;;21.80;99.90;;;;;;5066762;28;20043;-70
2023/06/19 06:14:24;;;;;;;6.30;5.70;;;21.80;99.90;;;;;;5068617;28;20043;-72
2023/06/19 06:16:50;;;;;;;6.95;6.25;;;21.90;99.90;;;;;;5054053;28;20524;-73
2023/06/19 06:19:16;;;;;;;8.65;6.43;;;21.80;99.90;;;;;;5038055;28;20566;-71
2023/06/19 06:21:41;;;;;;;7.68;5.70;;;21.90;99.90;;;;;;5052735;28;20040;-73
2023/06/19 06:24:07;;;;;;;7.10;6.13;;;21.80;99.90;;;;;;5049087;28;20106;-74
2023/06/19 06:26:33;;;;;;;7.50;6.10;;;21.80;99.90;;;;;;5037688;28;20045;-72
2023/06/19 06:28:59;;;;;;;6.60;6.00;;;21.80;99.90;;;;;;5053245;28;20032;-72
2023/06/19 06:31:24;;;;;;;8.65;7.38;;;22.00;99.90;;;;;;5054122;28;20072;-73
2023/06/19 06:33:50;;;;;;;5.90;5.25;;;21.80;99.90;;;;;;5057363;28;20069;-72
2023/06/19 06:36:16;;;;;;;6.70;5.95;;;21.90;99.90;;;;;;5082001;28;20355;-70
2023/06/19 06:38:42;;;;;;;7.05;5.85;;;22.00;99.90;;;;;;5053774;28;20036;-70
2023/06/19 06:41:08;;;;;;;6.53;5.45;;;21.90;99.90;;;;;;5036790;28;20037;-74
2023/06/19 06:43:34;;;;;;;7.32;5.90;;;22.00;99.90;;;;;;5039648;28;20063;-72
2023/06/19 06:46:00;;;;;;;7.30;5.97;;;21.90;99.90;;;;;;5057069;28;20351;-72
2023/06/19 06:48:26;;;;;;;8.57;5.72;;;22.00;99.90;;;;;;5051960;28;20563;-69
2023/06/19 06:50:59;;;;;;;7.70;5.93;;;22.10;99.90;;;;;;5055405;28;20045;-70
2023/06/19 06:53:25;;;;;;;5.63;5.10;;;22.10;99.90;;;;;;5039251;28;20465;-71
2023/06/19 06:55:51;;;;;;;5.63;4.97;;;22.20;99.90;;;;;;5092844;28;20497;-73
2023/06/19 06:58:18;;;;;;;5.50;5.00;;;22.20;99.90;;;;;;5048283;28;20485;-71
2023/06/19 07:00:44;;;;;;;4.00;3.63;;;22.20;99.90;;;;;;5059847;28;20082;-74
2023/06/19 07:03:10;;;;;;;4.68;4.18;;;22.00;99.90;;;;;;5029639;28;20534;-73
2023/06/19 07:05:36;;;;;;;4.93;4.53;;;22.10;99.90;;;;;;5059339;28;20064;-73
2023/06/19 07:08:02;;;;;;;4.72;4.32;;;22.20;99.90;;;;;;5042594;28;20516;-72
2023/06/19 07:10:27;;;;;;;7.07;4.85;;;22.10;99.90;;;;;;5048205;28;20047;-75
2023/06/19 07:12:53;;;;;;;4.40;4.00;;;22.10;99.90;;;;;;5032263;28;20055;-72
2023/06/19 07:15:19;;;;;;;4.45;4.05;;;22.00;99.90;;;;;;5048734;28;20033;-72
2023/06/19 07:17:45;;;;;;;4.47;4.07;;;22.00;99.90;;;;;;5062128;28;20040;-72
2023/06/19 07:20:11;;;;;;;4.72;4.32;;;21.80;99.90;;;;;;5051097;28;20033;-73
2023/06/19 07:22:37;;;;;;;4.10;3.70;;;21.70;99.90;;;;;;5050709;28;20433;-72
2023/06/19 07:25:03;;;;;;;4.70;4.30;;;21.50;99.90;;;;;;5085606;28;20044;-70
2023/06/19 07:27:30;;;;;;;5.80;4.53;;;21.50;99.90;;;;;;5043916;28;20047;-71
2023/06/19 07:29:55;;;;;;;5.90;5.38;;;21.30;99.90;;;;;;5051532;28;20052;-72
2023/06/19 07:32:21;;;;;;;6.43;5.72;;;21.30;99.90;;;;;;5038753;28;20033;-71
2023/06/19 07:34:47;;;;;;;7.03;6.20;;;21.20;99.90;;;;;;5058340;28;20079;-71
2023/06/19 07:37:22;;;;;;;9.23;7.47;;;21.10;99.90;;;;;;5056218;28;20120;-69
2023/06/19 07:39:49;;;;;;;8.80;8.00;;;21.10;99.90;;;;;;5051495;28;20041;-71
2023/06/19 07:42:16;;;;;;;8.80;8.00;;;21.10;99.90;;;;;;5060726;28;20044;-72
2023/06/19 07:44:42;;;;;;;9.73;7.97;;;21.20;99.90;;;;;;5054096;28;20305;-75
2023/06/19 07:47:08;;;;;;;10.63;8.15;;;21.20;99.90;;;;;;5094508;28;20068;-72
2023/06/19 07:49:35;;;;;;;7.90;7.10;;;21.10;99.90;;;;;;5058025;28;20071;-71
2023/06/19 07:52:01;;;;;;;9.98;8.95;;;21.10;99.90;;;;;;5056309;28;20040;-70
2023/06/19 07:54:27;;;;;;;10.00;8.60;;;21.10;99.90;;;;;;5057601;28;20398;-73
2023/06/19 07:56:53;;;;;;;10.70;9.23;;;21.10;99.90;;;;;;5068486;28;20078;-72
2023/06/19 07:59:19;;;;;;;9.38;8.05;;;21.10;99.90;;;;;;5042540;28;20556;-72
2023/06/19 08:01:45;;;;;;;10.50;8.93;;;21.10;99.90;;;;;;5060819;28;20040;-73
2023/06/19 08:04:10;;;;;;;14.55;10.63;;;21.10;99.90;;;;;;5046142;28;20385;-70
2023/06/19 08:06:36;;;;;;;10.38;9.38;;;21.00;99.90;;;;;;5030929;28;20052;-71
2023/06/19 08:09:02;;;;;;;10.10;9.07;;;21.20;99.90;;;;;;5058329;28;20056;-70
2023/06/19 08:11:28;;;;;;;9.98;8.98;;;21.30;99.90;;;;;;5043002;28;20079;-69
2023/06/19 08:13:54;;;;;;;10.30;8.77;;;21.20;99.90;;;;;;5053361;28;20061;-72
2023/06/19 08:16:20;;;;;;;9.07;8.18;;;21.20;99.90;;;;;;5061062;28;20037;-71
2023/06/19 08:18:46;;;;;;;8.98;8.15;;;21.30;99.90;;;;;;5052212;28;20060;-72
2023/06/19 08:21:12;;;;;;;9.45;8.00;;;21.40;99.90;;;;;;5057501;28;20061;-70
2023/06/19 08:23:39;;;;;;;8.73;7.82;;;21.30;99.90;;;;;;5036203;28;20127;-71
2023/06/19 08:26:05;;;;;;;8.25;7.45;;;21.20;99.90;;;;;;5060629;28;20033;-72
2023/06/19 08:28:34;;;;;;;8.35;7.45;;;21.20;99.90;;;;;;5040302;28;20057;-71
2023/06/19 08:31:00;;;;;;;8.75;7.80;;;21.10;99.90;;;;;;5057623;28;20124;-72
2023/06/19 08:33:26;;;;;;;8.77;7.63;;;21.00;99.90;;;;;;5056246;28;20052;-70
2023/06/19 08:35:52;;;;;;;11.77;7.50;;;21.10;99.90;;;;;;5043548;28;20041;-72
2023/06/19 08:38:18;;;;;;;10.43;6.32;;;21.00;99.90;;;;;;5061821;28;20107;-72
2023/06/19 08:40:45;;;;;;;7.78;6.82;;;21.00;99.90;;;;;;5055354;28;20037;-71
2023/06/19 08:43:11;;;;;;;8.15;6.55;;;21.10;99.90;;;;;;5064975;28;20547;-70
2023/06/19 08:45:37;;;;;;;9.07;7.50;;;21.00;99.90;;;;;;5035274;28;20091;-70
2023/06/19 08:48:04;;;;;;;8.73;7.32;;;21.00;99.90;;;;;;5040367;28;20044;-70
2023/06/19 08:50:30;;;;;;;7.63;6.80;;;21.00;99.90;;;;;;5054140;28;20060;-71
2023/06/19 08:52:56;;;;;;;8.00;7.28;;;21.10;99.90;;;;;;5039426;28;20052;-71
2023/06/19 08:55:22;;;;;;;10.05;7.95;;;21.10;99.90;;;;;;5060776;28;20061;-71
2023/06/19 08:57:50;;;;;;;7.75;6.95;;;21.00;99.90;;;;;;5074654;28;20701;-70
2023/06/19 09:00:27;;;;;;;7.43;6.35;;;21.10;99.90;;;;;;5059946;28;20053;-70
2023/06/19 09:03:02;;;;;;;9.68;7.82;;;21.10;99.90;;;;;;5061140;28;20053;-72
2023/06/19 09:05:28;;;;;;;9.27;6.68;;;21.10;99.90;;;;;;5077216;28;20033;-71
2023/06/19 09:07:57;;;;;;;8.57;7.32;;;21.10;99.90;;;;;;5043422;28;20365;-69
2023/06/19 09:10:23;;;;;;;10.25;7.38;;;21.00;99.90;;;;;;5056535;28;20135;-72
2023/06/19 09:13:00;;;;;;;9.15;6.55;;;21.00;99.90;;;;;;5058721;28;20045;-72
2023/06/19 09:15:35;;;;;;;8.25;5.80;;;21.00;99.90;;;;;;5083234;28;20048;-70
2023/06/19 09:18:09;;;;;;;9.27;5.57;;;20.90;99.90;;;;;;5055224;28;20036;-71
2023/06/19 09:20:47;;;;;;;6.80;5.20;;;20.90;99.90;;;;;;5042970;28;20075;-73
2023/06/19 09:23:13;;;;;;;8.05;5.10;;;21.10;99.90;;;;;;5066793;28;20531;-72
2023/06/19 09:25:51;;;;;;;5.97;4.40;;;21.20;99.90;;;;;;5060031;28;20041;-71
2023/06/19 09:28:27;;;;;;;4.75;4.03;;;21.40;99.90;;;;;;5053251;28;20055;-71
2023/06/19 09:31:01;;;;;;;7.55;4.57;;;21.60;99.90;;;;;;5062065;28;20051;-69
2023/06/19 09:33:29;;;;;;;4.43;3.85;;;21.70;99.90;;;;;;5060428;28;20063;-71
2023/06/19 09:35:57;;;;;;;3.85;3.45;;;21.90;99.90;;;;;;5060478;28;20411;-72
2023/06/19 09:38:26;;;;;;;4.93;3.75;;;21.80;99.90;;;;;;5054422;28;20496;-70
2023/06/19 09:40:53;;;;;;;4.25;3.85;;;22.20;99.90;;;;;;5042121;28;20106;-71
2023/06/19 09:43:24;;;;;;;10.27;4.18;;;22.30;99.90;;;;;;5061021;28;20052;-69
2023/06/19 09:45:54;;;;;;;5.28;3.33;;;22.20;99.90;;;;;;5060233;28;20119;-71
2023/06/19 09:48:22;;;;;;;6.60;4.53;;;22.40;99.90;;;;;;5055297;28;21800;-71
2023/06/19 09:50:51;;;;;;;6.50;4.20;;;22.70;99.90;;;;;;5034017;28;20125;-71
2023/06/19 09:53:19;;;;;;;4.07;3.55;;;22.60;99.90;;;;;;5068889;28;20033;-72
2023/06/19 09:55:47;;;;;;;4.93;3.60;;;22.70;99.90;;;;;;5060250;28;20151;-73
2023/06/19 09:58:14;;;;;;;7.10;4.00;;;22.50;99.90;;;;;;5052914;28;20064;-69
2023/06/19 10:00:40;;;;;;;6.40;3.72;;;22.50;99.90;;;;;;5062675;28;20039;-69
2023/06/19 10:03:12;;;;;;;4.28;3.60;;;22.60;99.90;;;;;;5060968;28;20037;-70
2023/06/19 10:05:37;;;;;;;4.88;3.83;;;22.40;99.90;;;;;;5062668;28;20041;-71
2023/06/19 10:08:04;;;;;;;7.53;4.45;;;22.30;99.90;;;;;;5061692;28;20118;-71
2023/06/19 10:10:30;;;;;;;4.93;4.40;;;22.20;99.90;;;;;;5054225;28;20045;-73
2023/06/19 10:12:58;;;;;;;6.05;4.30;;;22.20;99.90;;;;;;5052307;28;20041;-72
2023/06/19 10:15:29;;;;;;;6.43;4.55;;;22.10;99.90;;;;;;5062218;28;20078;-72
2023/06/19 10:18:05;;;;;;;5.82;4.25;;;22.20;99.90;;;;;;5062002;28;20040;-73
2023/06/19 10:20:38;;;;;;;5.55;4.20;;;22.40;99.90;;;;;;5065677;28;20087;-70
2023/06/19 10:23:05;;;;;;;5.28;4.78;;;22.50;99.90;;;;;;5036417;28;20048;-70
2023/06/19 10:25:36;;;;;;;5.65;4.85;;;22.70;99.90;;;;;;5089656;28;20396;-70
2023/06/19 10:28:05;;;;;;;6.03;5.28;;;22.70;99.90;;;;;;5057608;28;20052;-72
2023/06/19 10:30:33;;;;;;;5.65;5.03;;;22.70;99.90;;;;;;5043147;28;20650;-69
2023/06/19 10:32:59;;;;;;;6.97;5.00;;;22.80;99.90;;;;;;5032540;28;20044;-72
2023/06/19 10:35:24;;;;;;;6.45;5.45;;;22.80;99.90;;;;;;5035071;28;20032;-72
2023/06/19 10:37:51;;;;;;;6.68;6.05;;;22.80;99.90;;;;;;5054964;28;20076;-69
2023/06/19 10:40:17;;;;;;;6.78;5.82;;;22.60;99.90;;;;;;5032689;28;20113;-70
2023/06/19 10:42:44;;;;;;;8.27;5.78;;;22.50;99.90;;;;;;5057316;28;20048;-69
2023/06/19 10:45:17;;;;;;;6.20;5.00;;;22.40;99.90;;;;;;5058005;28;20039;-72
2023/06/19 10:47:44;;;;;;;6.43;5.78;;;22.40;99.90;;;;;;5042427;28;20083;-72
2023/06/19 10:50:16;;;;;;;6.70;6.00;;;22.40;99.90;;;;;;5037070;28;20044;-71
2023/06/19 10:52:44;;;;;;;7.32;6.53;;;22.60;99.90;;;;;;5057354;28;20091;-73
2023/06/19 10:55:11;;;;;;;7.45;6.70;;;22.40;99.90;;;;;;5053192;28;20045;-71
2023/06/19 10:57:40;;;;;;;6.95;6.25;;;22.60;99.90;;;;;;5075476;28;20033;-70
2023/06/19 11:00:13;;;;;;;8.00;6.97;;;22.50;99.90;;;;;;5033007;28;20095;-74
2023/06/19 11:02:42;;;;;;;7.85;6.90;;;22.50;99.90;;;;;;5085975;28;20560;-72
2023/06/19 11:05:18;;;;;;;7.72;6.72;;;22.70;99.90;;;;;;5049931;28;20041;-70
2023/06/19 11:07:50;;;;;;;11.45;6.88;;;23.00;99.90;;;;;;5053701;28;20037;-70
2023/06/19 11:10:22;;;;;;;8.88;7.72;;;23.30;99.90;;;;;;5076930;28;20047;-71
2023/06/19 11:12:48;;;;;;;9.45;7.68;;;23.00;99.90;;;;;;5056353;28;20052;-73
2023/06/19 11:15:14;;;;;;;7.20;6.50;;;22.80;99.90;;;;;;5055339;28;20024;-72
2023/06/19 11:17:40;;;;;;;7.03;6.35;;;23.00;99.90;;;;;;5027971;28;20829;-75
2023/06/19 11:20:10;;;;;;;7.97;7.22;;;23.10;99.90;;;;;;5062597;28;20109;-73
2023/06/19 11:22:37;;;;;;;7.95;7.15;;;23.00;99.90;;;;;;5045116;28;20044;-71
2023/06/19 11:25:04;;;;;;;8.13;7.32;;;23.10;99.90;;;;;;5050824;28;20072;-72
2023/06/19 11:27:30;;;;;;;10.07;7.28;;;23.10;99.90;;;;;;5054719;28;20047;-75
2023/06/19 11:30:00;;;;;;;10.65;7.45;;;23.20;99.90;;;;;;5057363;28;20131;-75
2023/06/19 11:32:35;;;;;;;7.50;6.80;;;23.50;99.90;;;;;;5051987;28;20592;-72
2023/06/19 11:35:12;;;;;;;8.65;6.75;;;24.20;99.90;;;;;;5044580;28;20036;-72
2023/06/19 11:37:42;;;;;;;8.75;7.00;;;24.40;99.90;;;;;;5082767;28;20046;-72
2023/06/19 11:40:19;;;;;;;8.50;7.30;;;24.40;99.90;;;;;;5060319;28;20055;-72
2023/06/19 11:42:51;;;;;;;7.97;7.18;;;24.30;99.90;;;;;;5061612;28;20052;-71
2023/06/19 11:45:17;;;;;;;7.78;6.95;;;24.00;99.90;;;;;;5062912;28;20059;-72
2023/06/19 11:47:44;;;;;;;7.80;7.00;;;24.20;99.90;;;;;;5056419;28;20477;-72
2023/06/19 11:50:11;;;;;;;9.15;7.30;;;24.20;99.90;;;;;;5079256;28;20068;-72
2023/06/19 11:52:36;;;;;;;7.97;7.18;;;23.90;99.90;;;;;;5064132;28;20032;-72
2023/06/19 11:55:02;;;;;;;9.15;6.50;;;24.50;99.90;;;;;;5037104;28;20398;-71
2023/06/19 11:57:28;;;;;;;8.73;6.30;;;24.70;99.90;;;;;;5041639;28;20439;-73
2023/06/19 11:59:54;;;;;;;8.80;7.57;;;25.00;99.90;;;;;;5066461;28;20036;-72
2023/06/19 12:02:20;;;;;;;8.30;7.45;;;24.60;99.90;;;;;;5047460;28;20041;-68
2023/06/19 12:04:46;;;;;;;7.28;6.20;;;24.50;99.90;;;;;;5044009;28;20049;-67
2023/06/19 12:07:11;;;;;;;11.70;8.32;;;24.40;99.90;;;;;;5057525;28;20113;-70
2023/06/19 12:09:38;;;;;;;7.05;6.45;;;24.10;99.90;;;;;;5037899;28;20072;-71
2023/06/19 12:12:05;;;;;;;8.65;7.32;;;24.10;99.90;;;;;;5063623;28;20101;-72
2023/06/19 12:14:31;;;;;;;8.82;7.47;;;24.50;99.90;;;;;;5059074;28;20025;-67
2023/06/19 12:16:57;;;;;;;8.82;7.57;;;24.50;99.90;;;;;;5047353;28;20056;-68
2023/06/19 12:19:23;;;;;;;8.98;7.32;;;24.70;99.90;;;;;;5058243;28;20085;-68
2023/06/19 12:21:48;;;;;;;11.27;8.15;;;24.70;99.90;;;;;;5030849;28;20121;-69
2023/06/19 12:24:14;;;;;;;8.32;7.53;;;24.60;99.90;;;;;;5060404;28;20033;-69
2023/06/19 12:26:40;;;;;;;12.77;8.80;;;24.80;99.90;;;;;;5052972;28;21165;-71
2023/06/19 12:29:06;;;;;;;12.57;7.53;;;24.70;99.90;;;;;;5039000;28;20090;-69
2023/06/19 12:31:34;;;;;;;7.70;6.97;;;24.70;99.90;;;;;;5087575;28;20044;-69
2023/06/19 12:34:01;;;;;;;9.65;7.28;;;24.90;99.90;;;;;;5053659;28;20132;-69
2023/06/19 12:36:27;;;;;;;8.73;7.93;;;25.00;99.90;;;;;;5049055;28;20033;-69
2023/06/19 12:38:56;;;;;;;8.90;8.00;;;24.90;99.90;;;;;;5046489;28;20036;-69
2023/06/19 12:41:22;;;;;;;9.52;7.95;;;25.10;99.90;;;;;;5054206;28;20275;-68
2023/06/19 12:43:48;;;;;;;8.95;8.05;;;24.50;99.90;;;;;;5039623;28;20048;-72
2023/06/19 12:46:14;;;;;;;8.80;7.90;;;25.00;99.90;;;;;;5056325;28;20112;-69